sensor_id;sensor_type;location;lat;lon;timestamp;temperature;humidity
27741;DHT22;15134;48.768;9.184;2024-01-15T00:00:44;0.20;99.90
27741;DHT22;15134;48.768;9.184;2024-01-15T00:03:11;0.20;99.90
27741;DHT22;15134;48.768;9.184;2024-01-15T00:05:36;0.30;99.90
27741;DHT22;15134;48.768;9.184;2024-01-15T00:08:02;0.30;99.90
27741;DHT22;15134;48.768;9.184;2024-01-15T00:10:28;0.40;99.90
27741;DHT22;15134;48.768;9.184;2024-01-15T00:12:54;0.40;99.90
27741;DHT22;15134;48.768;9.184;2024-01-15T00:15:19;0.40;99.90
27741;DHT22;15134;48.768;9.184;2024-01-15T00:17:45;0.40;99.90
27741;DHT22;15134;48.768;9.184;2024-01-15T00:20:11;0.40;99.90
27741;DHT22;15134;48.768;9.184;2024-01-15T00:22:37;0.30;99.90
27741;DHT22;15134;48.768;9.184;2024-01-15T00:25:03;0.30;99.90
27741;DHT22;15134;48.768;9.184;2024-01-15T00:27:29;0.20;99.90
27741;DHT22;15134;48.768;9.184;2024-01-15T00:29:54;0.20;99.90
27741;DHT22;15134;48.768;9.184;2024-01-15T00:32:20;0.10;99.90
27741;DHT22;15134;48.768;9.184;2024-01-15T00:34:46;0.00;99.90
27741;DHT22;15134;48.768;9.184;2024-01-15T00:37:12;0.00;99.90
27741;DHT22;15134;48.768;9.184;2024-01-15T00:39:38;-0.10;99.90
27741;DHT22;15134;48.768;9.184;2024-01-15T00:42:04;-0.10;99.90
27741;DHT22;15134;48.768;9.184;2024-01-15T00:44:29;-0.10;99.90
27741;DHT22;15134;48.768;9.184;2024-01-15T00:46:55;-0.10;99.90
27741;DHT22;15134;48.768;9.184;2024-01-15T00:49:21;0.00;99.90
27741;DHT22;15134;48.768;9.184;2024-01-15T00:51:47;-0.10;99.90
27741;DHT22;15134;48.768;9.184;2024-01-15T00:54:13;-0.10;99.90
27741;DHT22;15134;48.768;9.184;2024-01-15T00:56:39;-0.10;99.90
27741;DHT22;15134;48.768;9.184;2024-01-15T00:59:04;-0.10;99.90
27741;DHT22;15134;48.768;9.184;2024-01-15T01:01:31;-0.10;99.90
27741;DHT22;15134;48.768;9.184;2024-01-15T01:03:57;-0.10;99.90
27741;DHT22;15134;48.768;9.184;2024-01-15T01:06:23;0.00;99.90
27741;DHT22;15134;48.768;9.184;2024-01-15T01:08:48;0.00;99.90
27741;DHT22;15134;48.768;9.184;2024-01-15T01:11:15;0.00;99.90
27741;DHT22;15134;48.768;9.184;2024-01-15T01:13:41;0.00;99.90
27741;DHT22;15134;48.768;9.184;2024-01-15T01:16:07;0.00;99.90
27741;DHT22;15134;48.768;9.184;2024-01-15T01:18:32;0.00;99.90
27741;DHT22;15134;48.768;9.184;2024-01-15T01:20:58;0.10;99.90
27741;DHT22;15134;48.768;9.184;2024-01-15T01:23:24;0.10;99.90
27741;DHT22;15134;48.768;9.184;2024-01-15T01:25:49;0.10;99.90
27741;DHT22;15134;48.768;9.184;2024-01-15T01:28:15;0.10;99.90
27741;DHT22;15134;48.768;9.184;2024-01-15T01:30:41;0.20;99.90
27741;DHT22;15134;48.768;9.184;2024-01-15T01:33:07;0.20;99.90
27741;DHT22;15134;48.768;9.184;2024-01-15T01:35:32;0.20;99.90
27741;DHT22;15134;48.768;9.184;2024-01-15T01:37:58;0.30;99.90
27741;DHT22;15134;48.768;9.184;2024-01-15T01:40:24;0.30;99.90
27741;DHT22;15134;48.768;9.184;2024-01-15T01:42:50;0.30;99.90
27741;DHT22;15134;48.768;9.184;2024-01-15T01:45:15;0.30;99.90
27741;DHT22;15134;48.768;9.184;2024-01-15T01:47:41;0.40;99.90
27741;DHT22;15134;48.768;9.184;2024-01-15T01:50:07;0.40;99.90
27741;DHT22;15134;48.768;9.184;2024-01-15T01:52:34;0.50;99.90
27741;DHT22;15134;48.768;9.184;2024-01-15T01:55:02;0.50;99.90
27741;DHT22;15134;48.768;9.184;2024-01-15T01:57:30;0.50;99.90
27741;DHT22;15134;48.768;9.184;2024-01-15T01:59:58;0.50;99.90
27741;DHT22;15134;48.768;9.184;2024-01-15T02:02:24;0.50;99.90
27741;DHT22;15134;48.768;9.184;2024-01-15T02:04:50;0.50;99.90
27741;DHT22;15134;48.768;9.184;2024-01-15T02:07:16;0.50;99.90
27741;DHT22;15134;48.768;9.184;2024-01-15T02:09:44;0.60;99.90
27741;DHT22;15134;48.768;9.184;2024-01-15T02:12:11;0.60;99.90
27741;DHT22;15134;48.768;9.184;2024-01-15T02:14:37;0.60;99.90
27741;DHT22;15134;48.768;9.184;2024-01-15T02:17:03;0.60;99.90
27741;DHT22;15134;48.768;9.184;2024-01-15T02:19:28;0.60;99.90
27741;DHT22;15134;48.768;9.184;2024-01-15T02:21:54;0.60;99.90
27741;DHT22;15134;48.768;9.184;2024-01-15T02:24:20;0.60;99.90
27741;DHT22;15134;48.768;9.184;2024-01-15T02:26:45;0.60;99.90
27741;DHT22;15134;48.768;9.184;2024-01-15T02:29:12;0.60;99.90
27741;DHT22;15134;48.768;9.184;2024-01-15T02:31:39;0.50;99.90
27741;DHT22;15134;48.768;9.184;2024-01-15T02:34:05;0.50;99.90
27741;DHT22;15134;48.768;9.184;2024-01-15T02:36:30;0.50;99.90
27741;DHT22;15134;48.768;9.184;2024-01-15T02:38:56;0.40;99.90
27741;DHT22;15134;48.768;9.184;2024-01-15T02:41:22;0.40;99.90
27741;DHT22;15134;48.768;9.184;2024-01-15T02:43:47;0.40;99.90
27741;DHT22;15134;48.768;9.184;2024-01-15T02:46:13;0.40;99.90
27741;DHT22;15134;48.768;9.184;2024-01-15T02:48:39;0.40;99.90
27741;DHT22;15134;48.768;9.184;2024-01-15T02:51:05;0.30;99.90
27741;DHT22;15134;48.768;9.184;2024-01-15T02:53:30;0.30;99.90
27741;DHT22;15134;48.768;9.184;2024-01-15T02:55:56;0.30;99.90
27741;DHT22;15134;48.768;9.184;2024-01-15T02:58:22;0.30;99.90
27741;DHT22;15134;48.768;9.184;2024-01-15T03:00:48;0.30;99.90
27741;DHT22;15134;48.768;9.184;2024-01-15T03:03:15;0.30;99.90
27741;DHT22;15134;48.768;9.184;2024-01-15T03:05:41;0.30;99.90
27741;DHT22;15134;48.768;9.184;2024-01-15T03:08:06;0.30;99.90
27741;DHT22;15134;48.768;9.184;2024-01-15T03:10:32;0.20;99.90
27741;DHT22;15134;48.768;9.184;2024-01-15T03:12:58;0.20;99.90
27741;DHT22;15134;48.768;9.184;2024-01-15T03:15:23;0.10;99.90
27741;DHT22;15134;48.768;9.184;2024-01-15T03:17:49;0.10;99.90
27741;DHT22;15134;48.768;9.184;2024-01-15T03:20:15;0.00;99.90
27741;DHT22;15134;48.768;9.184;2024-01-15T03:22:41;0.00;99.90
27741;DHT22;15134;48.768;9.184;2024-01-15T03:25:07;0.00;99.90
27741;DHT22;15134;48.768;9.184;2024-01-15T03:27:32;0.00;99.90
27741;DHT22;15134;48.768;9.184;2024-01-15T03:29:59;-0.10;99.90
27741;DHT22;15134;48.768;9.184;2024-01-15T03:32:25;-0.10;99.90
27741;DHT22;15134;48.768;9.184;2024-01-15T03:34:51;-0.10;99.90
27741;DHT22;15134;48.768;9.184;2024-01-15T03:37:17;-0.10;99.90
27741;DHT22;15134;48.768;9.184;2024-01-15T03:39:43;-0.10;99.90
27741;DHT22;15134;48.768;9.184;2024-01-15T03:42:09;-0.10;99.90
27741;DHT22;15134;48.768;9.184;2024-01-15T03:44:35;0.00;99.90
27741;DHT22;15134;48.768;9.184;2024-01-15T03:47:02;-0.10;99.90
27741;DHT22;15134;48.768;9.184;2024-01-15T03:49:27;-0.10;99.90
27741;DHT22;15134;48.768;9.184;2024-01-15T03:51:53;-0.10;99.90
27741;DHT22;15134;48.768;9.184;2024-01-15T03:54:19;-0.10;99.90
27741;DHT22;15134;48.768;9.184;2024-01-15T03:56:44;-0.10;99.90
27741;DHT22;15134;48.768;9.184;2024-01-15T03:59:10;0.00;99.90
27741;DHT22;15134;48.768;9.184;2024-01-15T04:01:36;0.00;99.90
27741;DHT22;15134;48.768;9.184;2024-01-15T04:04:02;0.10;99.90
27741;DHT22;15134;48.768;9.184;2024-01-15T04:06:27;0.20;99.90
27741;DHT22;15134;48.768;9.184;2024-01-15T04:08:53;0.20;99.90
27741;DHT22;15134;48.768;9.184;2024-01-15T04:11:19;0.30;99.90
27741;DHT22;15134;48.768;9.184;2024-01-15T04:13:44;0.30;99.90
27741;DHT22;15134;48.768;9.184;2024-01-15T04:16:10;0.30;99.90
27741;DHT22;15134;48.768;9.184;2024-01-15T04:18:36;0.40;99.90
27741;DHT22;15134;48.768;9.184;2024-01-15T04:21:04;0.50;99.90
27741;DHT22;15134;48.768;9.184;2024-01-15T04:23:30;0.50;99.90
27741;DHT22;15134;48.768;9.184;2024-01-15T04:25:57;0.50;99.90
27741;DHT22;15134;48.768;9.184;2024-01-15T04:28:23;0.60;99.90
27741;DHT22;15134;48.768;9.184;2024-01-15T04:30:48;0.60;99.90
27741;DHT22;15134;48.768;9.184;2024-01-15T04:33:14;0.60;99.90
27741;DHT22;15134;48.768;9.184;2024-01-15T04:35:40;0.60;99.90
27741;DHT22;15134;48.768;9.184;2024-01-15T04:38:06;0.70;99.90
27741;DHT22;15134;48.768;9.184;2024-01-15T04:40:31;0.70;99.90
27741;DHT22;15134;48.768;9.184;2024-01-15T04:42:57;0.70;99.90
27741;DHT22;15134;48.768;9.184;2024-01-15T04:45:23;0.80;99.90
27741;DHT22;15134;48.768;9.184;2024-01-15T04:47:54;0.80;99.90
27741;DHT22;15134;48.768;9.184;2024-01-15T04:50:21;0.80;99.90
27741;DHT22;15134;48.768;9.184;2024-01-15T04:52:47;0.80;99.90
27741;DHT22;15134;48.768;9.184;2024-01-15T04:55:13;0.80;99.90
27741;DHT22;15134;48.768;9.184;2024-01-15T04:57:38;0.80;99.90
27741;DHT22;15134;48.768;9.184;2024-01-15T05:00:04;0.80;99.90
27741;DHT22;15134;48.768;9.184;2024-01-15T05:02:30;0.80;99.90
27741;DHT22;15134;48.768;9.184;2024-01-15T05:04:56;0.90;99.90
27741;DHT22;15134;48.768;9.184;2024-01-15T05:07:23;0.90;99.90
27741;DHT22;15134;48.768;9.184;2024-01-15T05:09:49;0.90;99.90
27741;DHT22;15134;48.768;9.184;2024-01-15T05:12:14;1.00;99.90
27741;DHT22;15134;48.768;9.184;2024-01-15T05:14:40;1.00;99.90
27741;DHT22;15134;48.768;9.184;2024-01-15T05:17:06;1.00;99.90
27741;DHT22;15134;48.768;9.184;2024-01-15T05:19:31;1.00;99.90
27741;DHT22;15134;48.768;9.184;2024-01-15T05:21:57;1.00;99.90
27741;DHT22;15134;48.768;9.184;2024-01-15T05:24:23;0.90;99.90
27741;DHT22;15134;48.768;9.184;2024-01-15T05:26:49;0.90;99.90
27741;DHT22;15134;48.768;9.184;2024-01-15T05:29:14;0.90;99.90
27741;DHT22;15134;48.768;9.184;2024-01-15T05:31:40;1.00;99.90
27741;DHT22;15134;48.768;9.184;2024-01-15T05:34:06;0.90;99.90
27741;DHT22;15134;48.768;9.184;2024-01-15T05:36:32;0.90;99.90
27741;DHT22;15134;48.768;9.184;2024-01-15T05:38:57;0.90;99.90
27741;DHT22;15134;48.768;9.184;2024-01-15T05:41:23;1.00;99.90
27741;DHT22;15134;48.768;9.184;2024-01-15T05:43:49;1.00;99.90
27741;DHT22;15134;48.768;9.184;2024-01-15T05:46:15;1.00;99.90
27741;DHT22;15134;48.768;9.184;2024-01-15T05:48:41;1.00;99.90
27741;DHT22;15134;48.768;9.184;2024-01-15T05:51:07;1.00;99.90
27741;DHT22;15134;48.768;9.184;2024-01-15T05:53:32;1.00;99.90
27741;DHT22;15134;48.768;9.184;2024-01-15T05:55:58;1.00;99.90
27741;DHT22;15134;48.768;9.184;2024-01-15T05:58:24;1.00;99.90
27741;DHT22;15134;48.768;9.184;2024-01-15T06:00:50;1.00;99.90
27741;DHT22;15134;48.768;9.184;2024-01-15T06:03:15;1.10;99.90
27741;DHT22;15134;48.768;9.184;2024-01-15T06:05:41;1.10;99.90
27741;DHT22;15134;48.768;9.184;2024-01-15T06:08:07;1.10;99.90
27741;DHT22;15134;48.768;9.184;2024-01-15T06:10:33;1.10;99.90
27741;DHT22;15134;48.768;9.184;2024-01-15T06:12:59;1.00;99.90
27741;DHT22;15134;48.768;9.184;2024-01-15T06:15:25;1.00;99.90
27741;DHT22;15134;48.768;9.184;2024-01-15T06:17:50;1.00;99.90
27741;DHT22;15134;48.768;9.184;2024-01-15T06:20:16;1.10;99.90
27741;DHT22;15134;48.768;9.184;2024-01-15T06:22:42;1.10;99.90
27741;DHT22;15134;48.768;9.184;2024-01-15T06:25:08;1.10;99.90
27741;DHT22;15134;48.768;9.184;2024-01-15T06:27:34;1.10;99.90
27741;DHT22;15134;48.768;9.184;2024-01-15T06:30:00;1.10;99.90
27741;DHT22;15134;48.768;9.184;2024-01-15T06:32:25;1.10;99.90
27741;DHT22;15134;48.768;9.184;2024-01-15T06:34:51;1.10;99.90
27741;DHT22;15134;48.768;9.184;2024-01-15T06:37:17;1.10;99.90
27741;DHT22;15134;48.768;9.184;2024-01-15T06:39:45;1.10;99.90
27741;DHT22;15134;48.768;9.184;2024-01-15T06:42:11;1.10;99.90
27741;DHT22;15134;48.768;9.184;2024-01-15T06:44:37;1.10;99.90
27741;DHT22;15134;48.768;9.184;2024-01-15T06:47:03;1.10;99.90
27741;DHT22;15134;48.768;9.184;2024-01-15T06:49:29;1.10;99.90
27741;DHT22;15134;48.768;9.184;2024-01-15T06:51:55;1.10;99.90
27741;DHT22;15134;48.768;9.184;2024-01-15T06:54:21;1.10;99.90
27741;DHT22;15134;48.768;9.184;2024-01-15T06:56:47;1.10;99.90
27741;DHT22;15134;48.768;9.184;2024-01-15T06:59:13;1.20;99.90
27741;DHT22;15134;48.768;9.184;2024-01-15T07:01:38;1.20;99.90
27741;DHT22;15134;48.768;9.184;2024-01-15T07:04:04;1.10;99.90
27741;DHT22;15134;48.768;9.184;2024-01-15T07:06:30;1.20;99.90
27741;DHT22;15134;48.768;9.184;2024-01-15T07:08:56;1.20;99.90
27741;DHT22;15134;48.768;9.184;2024-01-15T07:11:22;1.20;99.90
27741;DHT22;15134;48.768;9.184;2024-01-15T07:13:48;1.20;99.90
27741;DHT22;15134;48.768;9.184;2024-01-15T07:16:13;1.20;99.90
27741;DHT22;15134;48.768;9.184;2024-01-15T07:18:39;1.20;99.90
27741;DHT22;15134;48.768;9.184;2024-01-15T07:21:05;1.20;99.90
27741;DHT22;15134;48.768;9.184;2024-01-15T07:23:31;1.20;99.90
27741;DHT22;15134;48.768;9.184;2024-01-15T07:25:57;1.20;99.90
27741;DHT22;15134;48.768;9.184;2024-01-15T07:28:23;1.20;99.90
27741;DHT22;15134;48.768;9.184;2024-01-15T07:30:48;1.20;99.90
27741;DHT22;15134;48.768;9.184;2024-01-15T07:33:14;1.20;99.90
27741;DHT22;15134;48.768;9.184;2024-01-15T07:35:40;1.20;99.90
27741;DHT22;15134;48.768;9.184;2024-01-15T07:38:06;1.20;99.90
27741;DHT22;15134;48.768;9.184;2024-01-15T07:40:31;1.20;99.90
27741;DHT22;15134;48.768;9.184;2024-01-15T07:42:57;1.20;99.90
27741;DHT22;15134;48.768;9.184;2024-01-15T07:45:23;1.20;99.90
27741;DHT22;15134;48.768;9.184;2024-01-15T07:47:49;1.20;99.90
27741;DHT22;15134;48.768;9.184;2024-01-15T07:50:15;1.20;99.90
27741;DHT22;15134;48.768;9.184;2024-01-15T07:52:41;1.20;99.90
27741;DHT22;15134;48.768;9.184;2024-01-15T07:55:07;1.30;99.90
27741;DHT22;15134;48.768;9.184;2024-01-15T07:57:33;1.30;99.90
27741;DHT22;15134;48.768;9.184;2024-01-15T07:59:59;1.30;99.90
27741;DHT22;15134;48.768;9.184;2024-01-15T08:02:25;1.30;99.90
27741;DHT22;15134;48.768;9.184;2024-01-15T08:04:51;1.30;99.90
27741;DHT22;15134;48.768;9.184;2024-01-15T08:07:17;1.30;99.90
27741;DHT22;15134;48.768;9.184;2024-01-15T08:09:43;1.40;99.90
27741;DHT22;15134;48.768;9.184;2024-01-15T08:12:09;1.40;99.90
27741;DHT22;15134;48.768;9.184;2024-01-15T08:14:35;1.40;99.90
27741;DHT22;15134;48.768;9.184;2024-01-15T08:17:01;1.40;99.90
27741;DHT22;15134;48.768;9.184;2024-01-15T08:19:27;1.50;99.90
27741;DHT22;15134;48.768;9.184;2024-01-15T08:21:53;1.50;99.90
27741;DHT22;15134;48.768;9.184;2024-01-15T08:24:19;1.40;99.90
27741;DHT22;15134;48.768;9.184;2024-01-15T08:26:44;1.50;99.90
27741;DHT22;15134;48.768;9.184;2024-01-15T08:29:10;1.50;99.90
27741;DHT22;15134;48.768;9.184;2024-01-15T08:31:36;1.50;99.90
27741;DHT22;15134;48.768;9.184;2024-01-15T08:34:02;1.50;99.90
27741;DHT22;15134;48.768;9.184;2024-01-15T08:36:28;1.60;99.90
27741;DHT22;15134;48.768;9.184;2024-01-15T08:38:57;1.60;99.90
27741;DHT22;15134;48.768;9.184;2024-01-15T08:41:23;1.70;99.90
27741;DHT22;15134;48.768;9.184;2024-01-15T08:43:49;1.70;99.90
27741;DHT22;15134;48.768;9.184;2024-01-15T08:46:15;1.70;99.90
27741;DHT22;15134;48.768;9.184;2024-01-15T08:48:41;1.80;99.90
27741;DHT22;15134;48.768;9.184;2024-01-15T08:51:07;1.90;99.90
27741;DHT22;15134;48.768;9.184;2024-01-15T08:53:33;2.00;99.90
27741;DHT22;15134;48.768;9.184;2024-01-15T08:55:59;1.90;99.90
27741;DHT22;15134;48.768;9.184;2024-01-15T08:58:25;2.00;99.90
27741;DHT22;15134;48.768;9.184;2024-01-15T09:00:51;2.00;99.90
27741;DHT22;15134;48.768;9.184;2024-01-15T09:03:17;2.10;99.90
27741;DHT22;15134;48.768;9.184;2024-01-15T09:05:44;2.10;99.90
27741;DHT22;15134;48.768;9.184;2024-01-15T09:08:10;2.00;99.90
27741;DHT22;15134;48.768;9.184;2024-01-15T09:10:36;2.10;99.90
27741;DHT22;15134;48.768;9.184;2024-01-15T09:13:01;2.10;99.90
27741;DHT22;15134;48.768;9.184;2024-01-15T09:15:30;2.10;99.90
27741;DHT22;15134;48.768;9.184;2024-01-15T09:17:55;2.10;99.90
27741;DHT22;15134;48.768;9.184;2024-01-15T09:20:23;2.10;99.90
27741;DHT22;15134;48.768;9.184;2024-01-15T09:22:48;2.10;99.90
27741;DHT22;15134;48.768;9.184;2024-01-15T09:25:14;2.20;99.90
27741;DHT22;15134;48.768;9.184;2024-01-15T09:27:40;2.20;99.90
27741;DHT22;15134;48.768;9.184;2024-01-15T09:30:06;2.30;99.90
27741;DHT22;15134;48.768;9.184;2024-01-15T09:32:32;2.30;99.90
27741;DHT22;15134;48.768;9.184;2024-01-15T09:34:58;2.30;99.90
27741;DHT22;15134;48.768;9.184;2024-01-15T09:37:24;2.30;99.90
27741;DHT22;15134;48.768;9.184;2024-01-15T09:39:50;2.40;99.90
27741;DHT22;15134;48.768;9.184;2024-01-15T09:42:16;2.40;99.90
27741;DHT22;15134;48.768;9.184;2024-01-15T09:44:42;2.40;99.90
27741;DHT22;15134;48.768;9.184;2024-01-15T09:47:08;2.40;99.90
27741;DHT22;15134;48.768;9.184;2024-01-15T09:49:34;2.40;99.90
27741;DHT22;15134;48.768;9.184;2024-01-15T09:52:01;2.50;99.90
27741;DHT22;15134;48.768;9.184;2024-01-15T09:54:27;2.50;99.90
27741;DHT22;15134;48.768;9.184;2024-01-15T09:56:54;2.50;99.90
27741;DHT22;15134;48.768;9.184;2024-01-15T09:59:22;2.50;99.90
27741;DHT22;15134;48.768;9.184;2024-01-15T10:01:50;2.50;99.90
27741;DHT22;15134;48.768;9.184;2024-01-15T10:04:16;2.60;99.90
27741;DHT22;15134;48.768;9.184;2024-01-15T10:06:45;2.60;99.90
27741;DHT22;15134;48.768;9.184;2024-01-15T10:09:13;2.50;99.90
27741;DHT22;15134;48.768;9.184;2024-01-15T10:11:42;2.50;99.90
27741;DHT22;15134;48.768;9.184;2024-01-15T10:14:09;2.50;99.90
27741;DHT22;15134;48.768;9.184;2024-01-15T10:16:35;2.40;99.90
27741;DHT22;15134;48.768;9.184;2024-01-15T10:19:00;2.40;99.90
27741;DHT22;15134;48.768;9.184;2024-01-15T10:21:26;2.40;99.90
27741;DHT22;15134;48.768;9.184;2024-01-15T10:23:52;2.40;99.90
27741;DHT22;15134;48.768;9.184;2024-01-15T10:26:17;2.40;99.90
27741;DHT22;15134;48.768;9.184;2024-01-15T10:28:44;2.40;99.90
27741;DHT22;15134;48.768;9.184;2024-01-15T10:31:10;2.50;99.90
27741;DHT22;15134;48.768;9.184;2024-01-15T10:33:36;2.50;99.90
27741;DHT22;15134;48.768;9.184;2024-01-15T10:36:01;2.60;99.90
27741;DHT22;15134;48.768;9.184;2024-01-15T10:38:27;2.60;99.90
27741;DHT22;15134;48.768;9.184;2024-01-15T10:40:56;2.60;99.90
27741;DHT22;15134;48.768;9.184;2024-01-15T10:43:23;2.70;99.90
27741;DHT22;15134;48.768;9.184;2024-01-15T10:45:49;2.70;99.90
27741;DHT22;15134;48.768;9.184;2024-01-15T10:48:19;2.70;99.90
27741;DHT22;15134;48.768;9.184;2024-01-15T10:50:50;2.80;99.90
27741;DHT22;15134;48.768;9.184;2024-01-15T10:53:16;2.80;99.90
27741;DHT22;15134;48.768;9.184;2024-01-15T10:55:44;2.80;99.90
27741;DHT22;15134;48.768;9.184;2024-01-15T10:58:11;2.80;99.90
27741;DHT22;15134;48.768;9.184;2024-01-15T11:00:38;2.80;99.90
27741;DHT22;15134;48.768;9.184;2024-01-15T11:03:06;2.90;99.90
27741;DHT22;15134;48.768;9.184;2024-01-15T11:05:38;2.90;99.90
27741;DHT22;15134;48.768;9.184;2024-01-15T11:08:07;3.00;99.90
27741;DHT22;15134;48.768;9.184;2024-01-15T11:10:47;3.10;99.90
27741;DHT22;15134;48.768;9.184;2024-01-15T11:16:01;3.10;99.90
27741;DHT22;15134;48.768;9.184;2024-01-15T11:18:29;3.10;99.90
27741;DHT22;15134;48.768;9.184;2024-01-15T11:23:53;3.00;99.90
27741;DHT22;15134;48.768;9.184;2024-01-15T11:26:31;3.00;99.90
27741;DHT22;15134;48.768;9.184;2024-01-15T11:28:59;2.80;99.90
27741;DHT22;15134;48.768;9.184;2024-01-15T11:34:07;3.00;99.90
27741;DHT22;15134;48.768;9.184;2024-01-15T11:41:58;3.00;99.90
27741;DHT22;15134;48.768;9.184;2024-01-15T11:44:24;2.80;99.90
27741;DHT22;15134;48.768;9.184;2024-01-15T11:46:59;2.80;99.90
27741;DHT22;15134;48.768;9.184;2024-01-15T11:52:20;2.80;99.90
27741;DHT22;15134;48.768;9.184;2024-01-15T12:00:06;2.60;99.90
27741;DHT22;15134;48.768;9.184;2024-01-15T12:02:42;2.60;99.90
27741;DHT22;15134;48.768;9.184;2024-01-15T12:05:10;2.70;99.90
27741;DHT22;15134;48.768;9.184;2024-01-15T12:07:39;2.60;99.90
27741;DHT22;15134;48.768;9.184;2024-01-15T12:10:21;2.70;99.90
27741;DHT22;15134;48.768;9.184;2024-01-15T12:13:11;2.70;99.90
27741;DHT22;15134;48.768;9.184;2024-01-15T12:15:38;2.60;99.90
27741;DHT22;15134;48.768;9.184;2024-01-15T12:18:08;2.60;99.90
27741;DHT22;15134;48.768;9.184;2024-01-15T12:20:35;2.50;99.90
27741;DHT22;15134;48.768;9.184;2024-01-15T12:23:01;2.50;99.90
27741;DHT22;15134;48.768;9.184;2024-01-15T12:25:29;2.50;99.90
27741;DHT22;15134;48.768;9.184;2024-01-15T12:27:56;2.50;99.90
27741;DHT22;15134;48.768;9.184;2024-01-15T12:30:22;2.40;99.90
27741;DHT22;15134;48.768;9.184;2024-01-15T12:32:48;2.40;99.90
27741;DHT22;15134;48.768;9.184;2024-01-15T12:35:14;2.30;99.90
27741;DHT22;15134;48.768;9.184;2024-01-15T12:37:41;2.30;99.90
27741;DHT22;15134;48.768;9.184;2024-01-15T12:40:09;2.30;99.90
27741;DHT22;15134;48.768;9.184;2024-01-15T12:42:44;2.30;99.90
27741;DHT22;15134;48.768;9.184;2024-01-15T12:45:12;2.30;99.90
27741;DHT22;15134;48.768;9.184;2024-01-15T12:47:41;2.30;99.90
27741;DHT22;15134;48.768;9.184;2024-01-15T12:50:11;2.30;99.90
27741;DHT22;15134;48.768;9.184;2024-01-15T12:52:40;2.20;99.90
27741;DHT22;15134;48.768;9.184;2024-01-15T12:55:07;2.10;99.90
27741;DHT22;15134;48.768;9.184;2024-01-15T12:57:35;2.10;99.90
27741;DHT22;15134;48.768;9.184;2024-01-15T13:00:01;2.10;99.90
27741;DHT22;15134;48.768;9.184;2024-01-15T13:02:27;2.10;99.90
27741;DHT22;15134;48.768;9.184;2024-01-15T13:04:53;2.10;99.90
27741;DHT22;15134;48.768;9.184;2024-01-15T13:07:19;2.20;99.90
27741;DHT22;15134;48.768;9.184;2024-01-15T13:09:45;2.30;99.90
27741;DHT22;15134;48.768;9.184;2024-01-15T13:12:11;2.30;99.90
27741;DHT22;15134;48.768;9.184;2024-01-15T13:14:37;2.30;99.90
27741;DHT22;15134;48.768;9.184;2024-01-15T13:17:03;2.40;99.90
27741;DHT22;15134;48.768;9.184;2024-01-15T13:19:29;2.40;99.90
27741;DHT22;15134;48.768;9.184;2024-01-15T13:21:55;2.40;99.90
27741;DHT22;15134;48.768;9.184;2024-01-15T13:24:24;2.40;99.90
27741;DHT22;15134;48.768;9.184;2024-01-15T13:26:49;2.40;99.90
27741;DHT22;15134;48.768;9.184;2024-01-15T13:29:15;2.40;99.90
27741;DHT22;15134;48.768;9.184;2024-01-15T13:31:41;2.40;99.90
27741;DHT22;15134;48.768;9.184;2024-01-15T13:34:07;2.40;99.90
27741;DHT22;15134;48.768;9.184;2024-01-15T13:36:33;2.30;99.90
27741;DHT22;15134;48.768;9.184;2024-01-15T13:38:58;2.30;99.90
27741;DHT22;15134;48.768;9.184;2024-01-15T13:41:26;2.30;99.90
27741;DHT22;15134;48.768;9.184;2024-01-15T13:43:54;2.30;99.90
27741;DHT22;15134;48.768;9.184;2024-01-15T13:46:29;2.40;99.90
27741;DHT22;15134;48.768;9.184;2024-01-15T13:48:57;2.40;99.90
27741;DHT22;15134;48.768;9.184;2024-01-15T13:51:23;2.40;99.90
27741;DHT22;15134;48.768;9.184;2024-01-15T13:53:49;2.30;99.90
27741;DHT22;15134;48.768;9.184;2024-01-15T13:56:15;2.30;99.90
27741;DHT22;15134;48.768;9.184;2024-01-15T13:58:41;2.30;99.90
27741;DHT22;15134;48.768;9.184;2024-01-15T14:01:08;2.30;99.90
27741;DHT22;15134;48.768;9.184;2024-01-15T14:03:34;2.30;99.90
27741;DHT22;15134;48.768;9.184;2024-01-15T14:06:00;2.40;99.90
27741;DHT22;15134;48.768;9.184;2024-01-15T14:08:28;2.40;99.90
27741;DHT22;15134;48.768;9.184;2024-01-15T14:10:54;2.40;99.90
27741;DHT22;15134;48.768;9.184;2024-01-15T14:13:22;2.40;99.90
27741;DHT22;15134;48.768;9.184;2024-01-15T14:15:48;2.50;99.90
27741;DHT22;15134;48.768;9.184;2024-01-15T14:18:16;2.50;99.90
27741;DHT22;15134;48.768;9.184;2024-01-15T14:20:42;2.50;99.90
27741;DHT22;15134;48.768;9.184;2024-01-15T14:23:09;2.50;99.90
27741;DHT22;15134;48.768;9.184;2024-01-15T14:25:36;2.50;99.90
27741;DHT22;15134;48.768;9.184;2024-01-15T14:28:01;2.50;99.90
27741;DHT22;15134;48.768;9.184;2024-01-15T14:30:27;2.50;99.90
27741;DHT22;15134;48.768;9.184;2024-01-15T14:32:53;2.50;99.90
27741;DHT22;15134;48.768;9.184;2024-01-15T14:35:18;2.40;99.90
27741;DHT22;15134;48.768;9.184;2024-01-15T14:37:44;2.40;99.90
27741;DHT22;15134;48.768;9.184;2024-01-15T14:40:11;2.40;99.90
27741;DHT22;15134;48.768;9.184;2024-01-15T14:42:37;2.30;99.90
27741;DHT22;15134;48.768;9.184;2024-01-15T14:45:04;2.30;99.90
27741;DHT22;15134;48.768;9.184;2024-01-15T14:47:35;2.20;99.90
27741;DHT22;15134;48.768;9.184;2024-01-15T14:50:01;2.20;99.90
27741;DHT22;15134;48.768;9.184;2024-01-15T14:52:27;2.20;99.90
27741;DHT22;15134;48.768;9.184;2024-01-15T14:54:52;2.20;99.90
27741;DHT22;15134;48.768;9.184;2024-01-15T14:57:18;2.20;99.90
27741;DHT22;15134;48.768;9.184;2024-01-15T14:59:44;2.20;99.90
27741;DHT22;15134;48.768;9.184;2024-01-15T15:02:10;2.20;99.90
27741;DHT22;15134;48.768;9.184;2024-01-15T15:04:35;2.20;99.90
27741;DHT22;15134;48.768;9.184;2024-01-15T15:07:01;2.20;99.90
27741;DHT22;15134;48.768;9.184;2024-01-15T15:09:27;2.20;99.90
27741;DHT22;15134;48.768;9.184;2024-01-15T15:11:53;2.00;99.90
27741;DHT22;15134;48.768;9.184;2024-01-15T15:14:19;2.00;99.90
27741;DHT22;15134;48.768;9.184;2024-01-15T15:16:44;2.00;99.90
27741;DHT22;15134;48.768;9.184;2024-01-15T15:19:12;2.00;99.90
27741;DHT22;15134;48.768;9.184;2024-01-15T15:21:38;2.00;99.90
27741;DHT22;15134;48.768;9.184;2024-01-15T15:24:03;2.00;99.90
27741;DHT22;15134;48.768;9.184;2024-01-15T15:26:29;2.10;99.90
27741;DHT22;15134;48.768;9.184;2024-01-15T15:28:55;2.10;99.90
27741;DHT22;15134;48.768;9.184;2024-01-15T15:31:21;2.00;99.90
27741;DHT22;15134;48.768;9.184;2024-01-15T15:33:46;1.90;99.90
27741;DHT22;15134;48.768;9.184;2024-01-15T15:36:12;1.90;99.90
27741;DHT22;15134;48.768;9.184;2024-01-15T15:38:38;2.00;99.90
27741;DHT22;15134;48.768;9.184;2024-01-15T15:41:04;2.00;99.90
27741;DHT22;15134;48.768;9.184;2024-01-15T15:43:30;2.10;99.90
27741;DHT22;15134;48.768;9.184;2024-01-15T15:45:56;2.10;99.90
27741;DHT22;15134;48.768;9.184;2024-01-15T15:48:23;2.20;99.90
27741;DHT22;15134;48.768;9.184;2024-01-15T15:50:50;2.10;99.90
27741;DHT22;15134;48.768;9.184;2024-01-15T15:53:18;2.10;99.90
27741;DHT22;15134;48.768;9.184;2024-01-15T15:55:44;2.10;99.90
27741;DHT22;15134;48.768;9.184;2024-01-15T15:58:10;2.00;99.90
27741;DHT22;15134;48.768;9.184;2024-01-15T16:00:35;2.00;99.90